Time;durP1;ratioP1;P1;durP2;ratioP2;P2;SDS_P1;SDS_P2;PMS_P1;PMS_P2;Temp;Humidity;BMP_temperature;BMP_pressure;BME280_temperature;BME280_humidity;BME280_pressure;Samples;Min_cycle;Max_cycle;Signal;HPM_P1;HPM_P2
2023/05/24 00:00:33;;;;;;;9.15;5.55;;;;;;;11.53;86.13;96149.00;5093677;28;20086;-62
2023/05/24 00:03:03;;;;;;;6.13;5.13;;;;;;;11.59;86.16;96155.75;5093690;28;20512;-63
2023/05/24 00:05:31;;;;;;;6.50;4.97;;;;;;;11.62;85.68;96155.59;5093602;28;20494;-63
2023/05/24 00:07:58;;;;;;;10.05;4.47;;;;;;;11.63;84.69;96158.09;5093691;28;20044;-67
2023/05/24 00:10:25;;;;;;;6.45;5.10;;;;;;;11.62;84.56;96155.59;5093501;28;20125;-65
2023/05/24 00:12:52;;;;;;;6.80;4.55;;;;;;;11.60;84.42;96149.56;5093572;28;20109;-65
2023/05/24 00:15:20;;;;;;;9.35;5.55;;;;;;;11.56;84.57;96141.00;5093541;28;20451;-61
2023/05/24 00:17:48;;;;;;;7.85;4.90;;;;;;;11.56;84.75;96146.22;5093420;28;20050;-65
2023/05/24 00:20:15;;;;;;;4.65;4.20;;;;;;;11.52;84.80;96149.06;5093445;28;20561;-67
2023/05/24 00:22:42;;;;;;;6.22;5.30;;;;;;;11.43;84.82;96151.22;5093353;28;20122;-65
2023/05/24 00:25:09;;;;;;;9.18;4.50;;;;;;;11.44;85.66;96144.22;5093379;28;20044;-66
2023/05/24 00:27:36;;;;;;;10.60;5.22;;;;;;;11.43;85.35;96139.88;5093605;28;20080;-67
2023/05/24 00:30:04;;;;;;;6.32;4.55;;;;;;;11.41;85.60;96142.56;5093231;28;20413;-63
2023/05/24 00:32:32;;;;;;;12.48;4.72;;;;;;;11.39;85.15;96152.31;5093186;28;20073;-62
2023/05/24 00:34:59;;;;;;;7.13;4.95;;;;;;;11.33;85.17;96145.59;5093310;28;20068;-65
2023/05/24 00:37:28;;;;;;;9.38;4.88;;;;;;;11.21;85.40;96146.16;5093163;28;20052;-66
2023/05/24 00:39:55;;;;;;;11.35;5.00;;;;;;;11.19;86.59;96150.59;5092717;28;20055;-62
2023/05/24 00:42:22;;;;;;;7.43;4.95;;;;;;;11.19;86.54;96145.38;5093231;28;20105;-64
2023/05/24 00:44:49;;;;;;;5.72;5.20;;;;;;;11.21;86.88;96140.91;5093086;28;20044;-62
2023/05/24 00:47:16;;;;;;;7.93;5.07;;;;;;;11.28;86.51;96146.69;5093027;28;20105;-67
2023/05/24 00:49:45;;;;;;;10.88;5.68;;;;;;;11.20;86.34;96140.06;5093096;28;20051;-66
2023/05/24 00:52:12;;;;;;;4.80;4.28;;;;;;;11.23;86.03;96149.56;5092986;28;20109;-64
2023/05/24 00:54:40;;;;;;;6.25;4.82;;;;;;;11.24;86.21;96149.50;5093096;28;20065;-64
2023/05/24 00:57:07;;;;;;;6.43;5.10;;;;;;;11.24;85.68;96148.63;5092947;28;20132;-63
2023/05/24 00:59:34;;;;;;;13.50;4.95;;;;;;;11.14;85.96;96149.97;5093037;28;20051;-68
2023/05/24 01:02:01;;;;;;;6.32;4.80;;;;;;;11.15;86.25;96147.28;5092881;28;20105;-61
2023/05/24 01:04:31;;;;;;;14.48;4.65;;;;;;;11.07;86.03;96146.78;5092910;28;20040;-66
2023/05/24 01:07:09;;;;;;;11.05;5.22;;;;;;;11.03;85.85;96151.34;5092886;28;20048;-62
2023/05/24 01:09:50;;;;;;;12.32;4.72;;;;;;;10.98;86.03;96141.06;5092816;28;20047;-61
2023/05/24 01:12:28;;;;;;;10.43;5.05;;;;;;;10.98;85.93;96142.81;5092881;28;20070;-67
2023/05/24 01:15:05;;;;;;;9.43;5.10;;;;;;;10.98;85.95;96146.31;5092966;28;20048;-66
2023/05/24 01:17:41;;;;;;;10.88;4.78;;;;;;;10.98;86.00;96135.84;5092828;28;20052;-64
2023/05/24 01:20:12;;;;;;;7.60;4.97;;;;;;;10.96;85.78;96142.06;5092844;28;20161;-63
2023/05/24 01:23:01;;;;;;;10.38;4.80;;;;;;;10.94;85.88;96136.91;5092691;28;20098;-63
2023/05/24 01:25:45;;;;;;;9.80;4.75;;;;;;;10.91;85.98;96133.56;5092929;28;20063;-67
2023/05/24 01:28:14;;;;;;;10.73;4.88;;;;;;;10.86;85.78;96139.00;5092708;28;20097;-65
2023/05/24 01:30:42;;;;;;;8.30;4.97;;;;;;;10.81;86.19;96130.53;5092741;28;20127;-66
2023/05/24 01:33:09;;;;;;;7.50;4.68;;;;;;;10.80;85.80;96137.53;5092713;28;20044;-67
2023/05/24 01:35:39;;;;;;;9.27;5.07;;;;;;;10.77;85.65;96142.88;5092738;28;20048;-64
2023/05/24 01:38:06;;;;;;;9.95;5.93;;;;;;;10.78;85.92;96143.75;5092286;28;20494;-67
2023/05/24 01:40:33;;;;;;;8.60;5.13;;;;;;;10.74;85.99;96143.88;5092669;28;20051;-66
2023/05/24 01:43:10;;;;;;;6.80;4.78;;;;;;;10.68;85.51;96141.53;5092587;28;20052;-67
2023/05/24 01:45:44;;;;;;;5.45;4.82;;;;;;;10.70;85.58;96149.31;5092678;28;20045;-66
2023/05/24 01:48:17;;;;;;;11.00;5.45;;;;;;;10.61;85.62;96138.38;5092618;28;20044;-62
2023/05/24 01:50:49;;;;;;;5.47;4.82;;;;;;;10.58;85.35;96135.88;5092600;28;20059;-65
2023/05/24 01:53:20;;;;;;;4.95;4.45;;;;;;;10.57;85.66;96139.41;5095082;28;20477;-67
2023/05/24 01:55:50;;;;;;;6.57;5.00;;;;;;;10.57;85.87;96142.00;5096019;28;20139;-65
2023/05/24 01:58:21;;;;;;;8.77;5.13;;;;;;;10.58;85.79;96142.88;5095876;28;20051;-62
2023/05/24 02:00:51;;;;;;;13.45;5.47;;;;;;;10.58;85.95;96146.34;5095995;28;20048;-65
2023/05/24 02:03:19;;;;;;;8.25;5.57;;;;;;;10.59;86.02;96149.78;5096088;28;20054;-64
2023/05/24 02:05:47;;;;;;;8.35;5.18;;;;;;;10.51;86.11;96141.44;5095956;28;20100;-64
2023/05/24 02:08:14;;;;;;;12.75;5.38;;;;;;;10.51;86.41;96144.06;5095938;28;20044;-65
2023/05/24 02:10:41;;;;;;;14.55;5.20;;;;;;;10.48;86.44;96140.66;5095750;28;20508;-61
2023/05/24 02:13:09;;;;;;;6.25;5.63;;;;;;;10.48;86.69;96142.44;5095888;28;20127;-68
2023/05/24 02:15:36;;;;;;;5.93;4.85;;;;;;;10.47;86.75;96149.44;5095668;28;20048;-65
2023/05/24 02:18:06;;;;;;;10.40;5.32;;;;;;;10.49;86.56;96139.75;5095582;28;20485;-65
2023/05/24 02:20:35;;;;;;;11.95;5.45;;;;;;;10.51;86.43;96151.91;5095648;28;20405;-63
2023/05/24 02:23:03;;;;;;;9.45;5.20;;;;;;;10.46;87.35;96152.09;5095658;28;20055;-67
2023/05/24 02:25:31;;;;;;;6.50;5.40;;;;;;;10.47;87.38;96152.03;5095587;28;20048;-66
2023/05/24 02:27:58;;;;;;;8.48;5.70;;;;;;;10.43;87.35;96149.59;5095552;28;20070;-65
2023/05/24 02:30:25;;;;;;;6.78;5.60;;;;;;;10.41;87.59;96144.44;5095494;28;20618;-63
2023/05/24 02:32:52;;;;;;;10.73;5.68;;;;;;;10.47;87.92;96153.78;5095454;28;20066;-60
2023/05/24 02:35:21;;;;;;;6.32;5.68;;;;;;;10.42;88.71;96153.13;5095282;28;20172;-64
2023/05/24 02:37:48;;;;;;;8.52;5.50;;;;;;;10.37;89.19;96153.31;5094968;28;20052;-64
2023/05/24 02:40:15;;;;;;;7.70;5.03;;;;;;;10.38;88.59;96152.41;5095267;28;20052;-66
2023/05/24 02:42:42;;;;;;;6.10;5.22;;;;;;;10.33;88.95;96159.63;5095073;28;20048;-65
2023/05/24 02:45:09;;;;;;;8.18;4.68;;;;;;;10.30;88.86;96163.19;5095093;28;20083;-62
2023/05/24 02:47:36;;;;;;;9.50;5.40;;;;;;;10.30;88.53;96154.50;5095083;28;20048;-63
2023/05/24 02:50:04;;;;;;;12.38;5.30;;;;;;;10.34;88.24;96158.69;5095192;28;20044;-66
2023/05/24 02:52:32;;;;;;;6.57;4.90;;;;;;;10.29;89.12;96161.50;5094911;28;20067;-65
2023/05/24 02:54:59;;;;;;;9.73;5.40;;;;;;;10.28;89.23;96161.56;5095031;28;20124;-68
2023/05/24 02:57:27;;;;;;;6.22;5.63;;;;;;;10.32;89.35;96163.13;5094881;28;20131;-62
2023/05/24 02:59:54;;;;;;;7.30;6.15;;;;;;;10.33;89.94;96172.69;5094841;28;20481;-64
2023/05/24 03:02:21;;;;;;;8.48;5.57;;;;;;;10.38;88.96;96172.50;5094761;28;20093;-65
2023/05/24 03:04:48;;;;;;;8.30;4.82;;;;;;;10.41;88.28;96172.34;5094699;28;20413;-67
2023/05/24 03:07:16;;;;;;;9.45;5.82;;;;;;;10.42;88.40;96171.44;5094727;28;20052;-61
2023/05/24 03:09:44;;;;;;;7.13;5.32;;;;;;;10.45;88.34;96172.16;5094579;28;20048;-64
2023/05/24 03:12:12;;;;;;;8.07;5.45;;;;;;;10.42;88.05;96167.03;5094585;28;20136;-62
2023/05/24 03:14:39;;;;;;;7.68;5.30;;;;;;;10.49;87.72;96168.53;5094778;28;20044;-64
2023/05/24 03:17:06;;;;;;;5.95;5.35;;;;;;;10.57;87.22;96164.72;5094551;28;20555;-65
2023/05/24 03:19:33;;;;;;;6.97;4.80;;;;;;;10.64;86.77;96162.66;5094402;28;20128;-65
2023/05/24 03:22:00;;;;;;;8.07;4.93;;;;;;;10.70;86.67;96175.47;5094333;28;20131;-63
2023/05/24 03:24:27;;;;;;;7.40;5.70;;;;;;;10.74;86.23;96172.66;5094328;28;20409;-62
2023/05/24 03:26:56;;;;;;;7.25;4.78;;;;;;;10.79;85.84;96171.59;5094351;28;20090;-64
2023/05/24 03:29:23;;;;;;;10.82;5.03;;;;;;;10.83;85.75;96171.41;5094344;28;20102;-68
2023/05/24 03:31:50;;;;;;;11.73;5.40;;;;;;;10.92;85.57;96170.13;5094245;28;20146;-64
2023/05/24 03:34:17;;;;;;;9.27;4.65;;;;;;;10.97;85.24;96170.78;5094213;28;20060;-66
2023/05/24 03:36:44;;;;;;;10.27;4.53;;;;;;;11.04;85.38;96170.47;5094129;28;20048;-67
2023/05/24 03:39:11;;;;;;;8.02;4.55;;;;;;;11.15;85.32;96180.47;5093846;28;20596;-63
2023/05/24 03:41:38;;;;;;;8.30;4.10;;;;;;;11.36;85.55;96176.00;5094062;28;20044;-63
2023/05/24 03:44:07;;;;;;;5.13;4.45;;;;;;;11.65;84.62;96180.78;5093957;28;20127;-63
2023/05/24 03:46:34;;;;;;;5.82;4.65;;;;;;;12.00;84.68;96179.06;5094240;28;20105;-64
2023/05/24 03:49:01;;;;;;;11.32;4.25;;;;;;;12.39;81.74;96181.56;5093916;28;20095;-63
2023/05/24 03:51:29;;;;;;;4.22;3.38;;;;;;;12.75;79.96;96184.97;5093868;28;20040;-67
2023/05/24 03:53:57;;;;;;;4.05;3.58;;;;;;;12.99;78.59;96189.84;5093800;28;20052;-64
2023/05/24 03:56:25;;;;;;;4.97;3.67;;;;;;;13.12;76.65;96190.03;5093783;28;20501;-64
2023/05/24 03:58:52;;;;;;;4.97;4.45;;;;;;;13.13;76.17;96186.50;5093732;28;20485;-65
2023/05/24 04:01:21;;;;;;;7.70;3.92;;;;;;;13.21;76.37;96189.53;5093754;28;20044;-63
2023/05/24 04:03:50;;;;;;;14.25;4.00;;;;;;;13.38;76.55;96191.25;5093625;28;20048;-66
2023/05/24 04:06:17;;;;;;;3.97;3.45;;;;;;;13.44;75.34;96187.44;5093509;28;20550;-66
2023/05/24 04:08:44;;;;;;;8.80;4.00;;;;;;;13.41;75.55;96192.88;5093774;28;20071;-65
2023/05/24 04:11:12;;;;;;;4.22;3.83;;;;;;;13.43;76.03;96198.03;5093695;28;20040;-61
2023/05/24 04:13:40;;;;;;;6.00;3.70;;;;;;;13.40;76.06;96199.88;5093583;28;20602;-63
2023/05/24 04:16:08;;;;;;;3.45;3.15;;;;;;;13.40;76.82;96199.06;5092866;28;20497;-64
2023/05/24 04:18:37;;;;;;;7.22;3.67;;;;;;;13.42;77.33;96207.69;5093235;28;20044;-64
2023/05/24 04:21:04;;;;;;;5.78;3.45;;;;;;;13.47;77.90;96203.03;5093393;28;20047;-64
2023/05/24 04:23:31;;;;;;;4.22;3.83;;;;;;;13.83;78.97;96205.50;5093558;28;20048;-63
2023/05/24 04:25:58;;;;;;;6.72;4.07;;;;;;;14.34;78.93;96202.59;5093356;28;20048;-65
2023/05/24 04:28:26;;;;;;;7.78;3.63;;;;;;;14.95;76.64;96201.66;5093287;28;20075;-61
2023/05/24 04:30:54;;;;;;;7.43;4.00;;;;;;;15.61;74.87;96203.75;5093299;28;20040;-65
2023/05/24 04:33:22;;;;;;;3.28;3.00;;;;;;;16.17;72.58;96205.47;5093197;28;20401;-63
2023/05/24 04:35:52;;;;;;;5.13;3.28;;;;;;;16.76;70.44;96202.50;5093192;28;20101;-64
2023/05/24 04:38:19;;;;;;;5.72;3.28;;;;;;;17.35;68.90;96206.41;5092893;28;20113;-65
2023/05/24 04:40:46;;;;;;;5.18;3.30;;;;;;;17.92;67.34;96203.25;5093301;28;20127;-68
2023/05/24 04:43:14;;;;;;;4.10;3.10;;;;;;;18.36;65.25;96205.41;5093178;28;20044;-63
2023/05/24 04:45:41;;;;;;;4.05;3.30;;;;;;;18.81;63.49;96208.16;5093253;28;20143;-65
2023/05/24 04:48:08;;;;;;;3.95;3.05;;;;;;;19.25;61.18;96204.84;5093132;28;20044;-67
2023/05/24 04:50:36;;;;;;;6.68;3.25;;;;;;;19.67;60.39;96206.88;5093072;28;20087;-62
2023/05/24 04:53:06;;;;;;;3.70;3.20;;;;;;;20.08;58.26;96199.16;5093141;28;20489;-65
2023/05/24 04:55:33;;;;;;;3.75;3.25;;;;;;;20.47;57.20;96202.28;5092951;28;20044;-63
2023/05/24 04:58:00;;;;;;;4.65;3.50;;;;;;;20.86;55.36;96202.50;5093008;28;20131;-66
2023/05/24 05:00:27;;;;;;;5.90;4.18;;;;;;;21.19;55.74;96210.44;5092914;28;20055;-65
2023/05/24 05:02:54;;;;;;;3.75;3.35;;;;;;;21.37;53.51;96209.78;5093208;28;20051;-67
2023/05/24 05:05:21;;;;;;;7.15;3.13;;;;;;;21.62;53.90;96205.81;5092898;28;20046;-67
2023/05/24 05:07:48;;;;;;;6.15;3.17;;;;;;;21.92;53.23;96212.09;5093019;28;20076;-66
2023/05/24 05:10:17;;;;;;;3.50;3.10;;;;;;;22.28;52.10;96216.03;5092865;28;20076;-65
2023/05/24 05:12:44;;;;;;;5.50;3.20;;;;;;;22.49;49.98;96215.03;5092925;28;20103;-63
2023/05/24 05:15:12;;;;;;;4.28;3.35;;;;;;;22.64;49.34;96218.16;5092803;28;20056;-66
2023/05/24 05:17:39;;;;;;;3.78;3.00;;;;;;;22.92;49.53;96218.22;5092941;28;20130;-63
2023/05/24 05:20:08;;;;;;;6.07;3.10;;;;;;;23.02;48.61;96224.38;5092730;28;20056;-62
2023/05/24 05:22:35;;;;;;;4.18;2.85;;;;;;;23.14;49.13;96219.72;5092719;28;20055;-63
2023/05/24 05:25:02;;;;;;;9.52;3.25;;;;;;;23.22;46.79;96222.50;5092679;28;20044;-67
2023/05/24 05:27:31;;;;;;;5.28;2.95;;;;;;;23.35;46.88;96218.66;5094079;28;20048;-63
2023/05/24 05:29:58;;;;;;;6.13;2.72;;;;;;;23.69;47.46;96217.28;5096645;28;20077;-65
2023/05/24 05:32:25;;;;;;;5.45;3.20;;;;;;;24.02;47.13;96230.16;5096464;28;20063;-64
2023/05/24 05:34:52;;;;;;;4.03;2.72;;;;;;;24.19;44.78;96232.03;5096616;28;20051;-65
2023/05/24 05:37:19;;;;;;;4.75;2.88;;;;;;;24.28;45.12;96232.09;5096421;28;20040;-65
2023/05/24 05:39:46;;;;;;;4.30;2.97;;;;;;;24.42;45.27;96223.56;5096206;28;20476;-65
2023/05/24 05:42:13;;;;;;;4.35;2.80;;;;;;;24.67;nan;96223.75;5096264;28;20075;-68
2023/05/24 05:44:42;;;;;;;3.22;2.92;;;;;;;25.08;44.50;96233.94;5096310;28;20051;-64
2023/05/24 05:47:09;;;;;;;4.05;2.80;;;;;;;25.42;44.43;96236.81;5096241;28;20476;-64
2023/05/24 05:49:36;;;;;;;7.78;3.03;;;;;;;25.55;43.76;96236.38;5096198;28;20087;-67
2023/05/24 05:52:05;;;;;;;6.57;3.35;;;;;;;25.64;44.16;96239.97;5096099;28;20080;-63
2023/05/24 05:54:32;;;;;;;5.05;3.20;;;;;;;25.50;43.75;96234.19;5096066;28;20059;-65
2023/05/24 05:57:00;;;;;;;6.13;3.20;;;;;;;25.33;43.29;96235.91;5096010;28;20044;-65
2023/05/24 05:59:27;;;;;;;8.10;2.75;;;;;;;25.57;44.08;96239.72;5095975;28;20090;-63
2023/05/24 06:01:56;;;;;;;7.22;2.75;;;;;;;25.79;43.53;96240.19;5096113;28;20048;-65
2023/05/24 06:04:23;;;;;;;3.83;2.65;;;;;;;26.00;43.54;96237.06;5096057;28;20071;-64
2023/05/24 06:06:50;;;;;;;4.00;3.08;;;;;;;26.17;43.31;96242.47;5095850;28;20048;-64
2023/05/24 06:09:18;;;;;;;7.38;3.45;;;;;;;26.28;43.49;96247.53;5095830;28;20044;-66
2023/05/24 06:11:45;;;;;;;5.30;3.05;;;;;;;26.47;43.58;96238.38;5095866;28;20497;-66
2023/05/24 06:14:16;;;;;;;9.32;2.85;;;;;;;26.76;43.67;96238.88;5095940;28;20090;-67
2023/05/24 06:16:44;;;;;;;5.93;3.50;;;;;;;27.07;44.03;96243.56;5095760;28;20094;-62
2023/05/24 06:19:14;;;;;;;7.40;3.33;;;;;;;27.02;42.35;96245.09;5095562;28;20075;-63
2023/05/24 06:21:46;;;;;;;5.88;3.13;;;;;;;26.97;41.73;96240.19;5095707;28;20508;-66
2023/05/24 06:24:13;;;;;;;3.55;3.05;;;;;;;27.09;42.03;96233.47;5095513;28;20467;-65
2023/05/24 06:26:41;;;;;;;5.82;2.80;;;;;;;27.36;41.98;96244.84;5095477;28;20059;-63
2023/05/24 06:29:09;;;;;;;4.75;3.30;;;;;;;27.52;40.66;96244.97;5095529;28;20044;-65
2023/05/24 06:31:36;;;;;;;4.40;2.88;;;;;;;27.68;41.01;96247.63;5095306;28;20052;-65
2023/05/24 06:34:03;;;;;;;5.10;2.70;;;;;;;27.84;41.05;96252.09;5095311;28;20470;-61
2023/05/24 06:36:34;;;;;;;5.68;2.92;;;;;;;28.07;39.78;96239.72;5095525;28;20059;-64
2023/05/24 06:39:02;;;;;;;7.68;3.15;;;;;;;28.30;38.43;96250.53;5094519;28;20429;-64
2023/05/24 06:41:29;;;;;;;4.18;2.92;;;;;;;28.32;38.20;96248.50;5095196;28;20052;-67
2023/05/24 06:43:56;;;;;;;7.72;2.85;;;;;;;28.34;38.03;96251.00;5095155;28;20124;-66
2023/05/24 06:46:23;;;;;;;4.60;2.47;;;;;;;28.37;38.59;96248.81;5095047;28;20478;-64
2023/05/24 06:48:51;;;;;;;9.27;2.95;;;;;;;28.17;36.76;96250.25;5095128;28;20048;-64
2023/05/24 06:51:18;;;;;;;4.03;2.60;;;;;;;28.43;38.06;96247.25;5094981;28;20044;-66
2023/05/24 06:53:46;;;;;;;4.57;2.80;;;;;;;28.61;38.02;96241.56;5095074;28;20055;-64
2023/05/24 06:56:13;;;;;;;3.15;2.40;;;;;;;28.68;37.82;96240.84;5094878;28;20090;-60
2023/05/24 06:58:41;;;;;;;4.97;2.65;;;;;;;28.67;37.29;96242.69;5094864;28;20444;-61
2023/05/24 07:01:08;;;;;;;5.97;3.40;;;;;;;28.70;36.48;96242.34;5094682;28;20048;-62
2023/05/24 07:03:36;;;;;;;8.88;2.83;;;;;;;28.80;35.83;96243.97;5094671;28;20044;-65
2023/05/24 07:06:04;;;;;;;4.05;2.28;;;;;;;28.93;35.83;96237.94;5094769;28;20047;-66
2023/05/24 07:08:31;;;;;;;8.07;2.53;;;;;;;28.98;35.70;96246.31;5094638;28;20549;-65
2023/05/24 07:11:00;;;;;;;5.35;2.80;;;;;;;28.73;33.00;96238.44;5094612;28;20060;-63
2023/05/24 07:13:27;;;;;;;4.43;2.50;;;;;;;28.34;31.72;96242.94;5094608;28;20048;-64
2023/05/24 07:15:54;;;;;;;7.45;2.30;;;;;;;27.95;32.79;96241.94;5094445;28;20040;-65
2023/05/24 07:18:21;;;;;;;6.72;2.30;;;;;;;27.80;31.93;96240.00;5094605;28;20105;-64
2023/05/24 07:20:48;;;;;;;3.22;2.33;;;;;;;27.65;31.25;96236.38;5094414;28;20087;-63
2023/05/24 07:23:16;;;;;;;2.70;2.10;;;;;;;27.41;32.35;96230.91;5094351;28;20052;-67
2023/05/24 07:25:43;;;;;;;3.22;2.15;;;;;;;26.82;33.54;96232.81;5094366;28;20048;-65
2023/05/24 07:28:13;;;;;;;3.20;2.38;;;;;;;26.79;33.35;96232.31;5094301;28;20055;-62
2023/05/24 07:30:40;;;;;;;2.33;2.13;;;;;;;26.90;33.64;96237.34;5094122;28;20406;-63
2023/05/24 07:33:07;;;;;;;2.92;2.20;;;;;;;27.21;35.38;96233.16;5094298;28;20055;-64
2023/05/24 07:35:35;;;;;;;3.95;2.30;;;;;;;27.06;31.51;96243.72;5094265;28;20052;-65
2023/05/24 07:38:02;;;;;;;4.03;2.38;;;;;;;26.95;34.42;96231.47;5093883;28;20101;-65
2023/05/24 07:40:30;;;;;;;4.85;2.50;;;;;;;27.00;31.96;96242.56;5094056;28;20083;-65
2023/05/24 07:42:57;;;;;;;3.90;2.47;;;;;;;27.09;33.27;96248.75;5094008;28;20048;-66
2023/05/24 07:45:25;;;;;;;2.85;2.20;;;;;;;26.97;31.82;96241.00;5093922;28;20074;-64
2023/05/24 07:47:53;;;;;;;5.07;2.35;;;;;;;27.14;32.48;96243.72;5093995;28;20177;-66
2023/05/24 07:50:20;;;;;;;2.80;2.28;;;;;;;27.30;33.71;96240.16;5093203;28;20048;-63
2023/05/24 07:52:47;;;;;;;6.03;2.30;;;;;;;27.18;31.54;96244.22;5093799;28;20515;-62
2023/05/24 07:55:15;;;;;;;4.32;2.28;;;;;;;26.74;30.29;96244.41;5093799;28;20059;-62
2023/05/24 07:57:42;;;;;;;6.40;2.38;;;;;;;26.24;32.89;96241.63;5093278;28;20044;-64
2023/05/24 08:00:13;;;;;;;3.20;2.20;;;;;;;25.77;32.99;96248.38;5093624;28;20051;-63
2023/05/24 08:02:42;;;;;;;;;;;;;;;25.75;36.22;96242.34;5094098;28;20075;-63
2023/05/24 08:05:12;;;;;;;5.53;2.00;;;;;;;25.70;34.81;96250.00;5093655;28;19963;-63
2023/05/24 08:07:40;;;;;;;4.27;2.37;;;;;;;25.75;33.37;96239.66;5093340;28;20139;-63
2023/05/24 08:10:11;;;;;;;4.93;2.58;;;;;;;25.65;34.86;96244.31;5093541;28;20048;-68
2023/05/24 08:12:38;;;;;;;4.30;2.33;;;;;;;25.94;35.87;96246.59;5093547;28;20474;-65
2023/05/24 08:15:07;;;;;;;4.05;2.90;;;;;;;26.07;33.39;96243.44;5093458;28;20498;-66
2023/05/24 08:17:35;;;;;;;10.48;2.63;;;;;;;26.17;34.60;96237.94;5093490;28;20131;-65
2023/05/24 08:20:07;;;;;;;5.32;2.25;;;;;;;26.32;35.89;96237.31;5093374;28;20051;-67
2023/05/24 08:22:35;;;;;;;6.80;2.50;;;;;;;26.47;35.35;96238.38;5093387;28;20123;-61
2023/05/24 08:25:02;;;;;;;7.07;2.72;;;;;;;26.24;34.32;96246.16;5093255;28;20044;-67
2023/05/24 08:27:30;;;;;;;4.20;2.75;;;;;;;25.94;35.48;96243.06;5093371;28;20044;-63
2023/05/24 08:29:57;;;;;;;3.25;2.63;;;;;;;25.76;34.08;96243.19;5093300;28;20137;-67
2023/05/24 08:32:25;;;;;;;2.53;2.33;;;;;;;25.53;34.73;96241.03;5093481;28;20128;-63
2023/05/24 08:34:54;;;;;;;5.07;2.70;;;;;;;25.16;35.05;96240.34;5099747;28;20499;-65
2023/05/24 08:37:23;;;;;;;3.90;2.97;;;;;;;25.05;34.71;96234.28;5093915;28;20070;-64
2023/05/24 08:39:51;;;;;;;5.60;2.70;;;;;;;24.75;35.57;96231.00;5093405;28;20063;-66
2023/05/24 08:42:19;;;;;;;3.80;2.70;;;;;;;24.57;38.27;96233.72;5093803;28;20048;-66
2023/05/24 08:44:52;;;;;;;3.97;2.85;;;;;;;24.49;37.92;96234.47;5093079;28;20090;-66
2023/05/24 08:47:21;;;;;;;6.85;2.95;;;;;;;24.42;39.09;96244.94;5093026;28;20050;-64
2023/05/24 08:49:50;;;;;;;5.65;3.17;;;;;;;24.60;40.70;96249.44;5093069;28;20139;-68
2023/05/24 08:52:19;;;;;;;7.55;3.30;;;;;;;24.90;42.03;96244.69;5091846;28;20091;-65
2023/05/24 08:54:49;;;;;;;9.20;3.10;;;;;;;25.02;41.26;96255.13;5092908;28;20242;-65
2023/05/24 08:57:17;;;;;;;6.25;3.22;;;;;;;25.03;43.53;96246.09;5093073;28;20055;-67
2023/05/24 08:59:45;;;;;;;4.03;3.08;;;;;;;25.43;43.82;96252.69;5093283;28;20470;-63
2023/05/24 09:02:15;;;;;;;7.70;3.33;;;;;;;25.97;42.26;96243.59;5095500;28;20040;-68
2023/05/24 09:04:45;;;;;;;6.97;3.03;;;;;;;26.16;41.12;96249.69;5097196;28;20043;-63
2023/05/24 09:07:14;;;;;;;8.32;4.93;;;;;;;26.29;41.21;96256.38;5097048;28;20131;-67
2023/05/24 09:09:47;;;;;;;7.85;3.40;;;;;;;26.42;40.91;96247.88;5096919;28;20131;-67
2023/05/24 09:12:18;;;;;;;4.22;3.10;;;;;;;26.09;36.51;96248.63;5096603;28;20040;-66
2023/05/24 09:14:46;;;;;;;10.30;2.92;;;;;;;25.42;35.88;96247.50;5097069;28;20062;-66
2023/05/24 09:17:15;;;;;;;5.00;2.88;;;;;;;25.20;37.68;96255.09;5097039;28;20487;-64
2023/05/24 09:19:45;;;;;;;6.30;3.75;;;;;;;25.20;39.53;96258.59;5096841;28;20052;-68
2023/05/24 09:22:15;;;;;;;4.32;3.15;;;;;;;25.05;37.81;96263.69;5096156;28;20140;-67
2023/05/24 09:24:43;;;;;;;8.52;3.03;;;;;;;24.52;38.78;96258.22;5116896;28;20051;-67
2023/05/24 09:27:11;;;;;;;4.93;3.00;;;;;;;24.16;41.32;96259.03;5117094;28;20101;-68
2023/05/24 09:29:40;;;;;;;5.93;3.97;;;;;;;24.40;42.36;96254.09;5117095;28;20043;-64
2023/05/24 09:32:08;;;;;;;5.97;3.30;;;;;;;24.48;43.33;96256.84;5115508;28;20055;-65
2023/05/24 09:34:40;;;;;;;5.63;3.03;;;;;;;24.78;45.32;96251.25;5096344;28;20566;-68
2023/05/24 09:37:12;;;;;;;9.95;3.42;;;;;;;25.16;43.85;96254.56;5096541;28;20083;-67
2023/05/24 09:39:42;;;;;;;7.22;3.50;;;;;;;25.26;43.32;96251.78;5096192;28;20052;-66
2023/05/24 09:42:14;;;;;;;10.20;3.28;;;;;;;25.26;44.24;96251.78;5096505;28;20044;-64
2023/05/24 09:44:43;;;;;;;11.68;4.78;;;;;;;25.27;43.70;96256.13;5114007;28;20051;-63
2023/05/24 09:47:12;;;;;;;12.23;4.00;;;;;;;25.23;42.75;96252.09;5116189;28;20045;-68
2023/05/24 09:49:40;;;;;;;7.82;3.65;;;;;;;24.98;42.35;96255.44;5116632;28;20044;-67
2023/05/24 09:52:07;;;;;;;5.30;3.60;;;;;;;25.16;42.52;96254.56;5116141;28;20409;-71
2023/05/24 09:54:34;;;;;;;8.77;4.10;;;;;;;25.24;41.04;96257.28;5102632;28;20051;-71
2023/05/24 09:57:02;;;;;;;4.75;3.30;;;;;;;25.42;41.12;96255.53;5095031;28;20079;-70
2023/05/24 09:59:33;;;;;;;5.63;3.22;;;;;;;25.53;40.89;96249.06;5097554;28;20052;-64
2023/05/24 10:02:10;;;;;;;5.00;2.90;;;;;;;25.80;40.80;96249.88;5116283;28;20052;-66
2023/05/24 10:04:38;;;;;;;3.35;2.55;;;;;;;25.86;34.15;96246.56;5116284;28;20051;-66
2023/05/24 10:07:07;;;;;;;3.38;2.55;;;;;;;26.06;35.43;96235.56;5116493;28;20509;-64
2023/05/24 10:09:35;;;;;;;4.63;3.00;;;;;;;26.18;36.95;96236.09;5116444;28;20075;-70
2023/05/24 10:12:04;;;;;;;5.68;3.13;;;;;;;25.97;36.07;96232.88;5115268;28;20047;-67
2023/05/24 10:14:34;;;;;;;4.13;2.78;;;;;;;25.98;35.93;96250.59;5115360;28;20039;-63
2023/05/24 10:17:03;;;;;;;6.13;2.55;;;;;;;25.66;36.27;96237.94;5116006;28;20125;-63
2023/05/24 10:19:33;;;;;;;3.72;2.45;;;;;;;25.27;36.42;96224.03;5116236;28;20048;-66
2023/05/24 10:22:02;;;;;;;4.68;2.95;;;;;;;24.91;34.83;96234.81;5100026;28;20048;-66
2023/05/24 10:24:35;;;;;;;4.82;2.70;;;;;;;24.92;35.06;96233.84;5095654;28;20063;-67
2023/05/24 10:27:07;;;;;;;4.05;2.53;;;;;;;25.09;35.33;96229.44;5095499;28;20044;-70
2023/05/24 10:29:45;;;;;;;5.72;2.00;;;;;;;25.24;36.66;96227.88;5095552;28;20048;-66
2023/05/24 10:32:15;;;;;;;2.95;2.55;;;;;;;25.36;37.64;96227.56;5105439;28;20047;-61
2023/05/24 10:34:46;;;;;;;3.65;2.72;;;;;;;25.28;38.35;96227.56;5115378;28;20090;-65
2023/05/24 10:37:14;;;;;;;5.20;3.63;;;;;;;24.89;43.05;96223.47;5115759;28;20450;-63
2023/05/24 10:39:42;;;;;;;7.40;3.88;;;;;;;24.36;44.97;96216.16;5115361;28;20508;-68
2023/05/24 10:42:11;;;;;;;6.80;4.38;;;;;;;24.15;47.37;96214.63;5115153;28;20047;-67
2023/05/24 10:44:40;;;;;;;8.02;3.83;;;;;;;24.26;46.12;96220.75;5115512;28;20043;-64
2023/05/24 10:47:12;;;;;;;10.02;4.03;;;;;;;24.09;45.30;96210.72;5115582;28;20052;-64
2023/05/24 10:49:50;;;;;;;8.40;4.32;;;;;;;23.87;45.25;96195.94;5115463;28;20489;-65
2023/05/24 10:52:19;;;;;;;9.77;3.58;;;;;;;23.82;45.37;96199.09;5113025;28;20041;-69
2023/05/24 10:55:06;;;;;;;7.80;3.00;;;;;;;24.18;44.28;96189.44;5115003;28;20481;-64
2023/05/24 10:57:34;;;;;;;4.32;2.50;;;;;;;24.71;40.66;96194.91;5115383;28;20581;-65
2023/05/24 11:00:29;;;;;;;3.28;2.97;;;;;;;25.33;41.09;96199.31;5115356;28;20126;-69
2023/05/24 11:03:01;;;;;;;5.07;3.50;;;;;;;25.65;43.71;96204.16;5101187;28;20051;-69
2023/05/24 11:05:35;;;;;;;10.73;3.60;;;;;;;25.86;43.86;96201.03;5094897;28;20044;-65
2023/05/24 11:08:08;;;;;;;12.90;3.40;;;;;;;26.01;41.67;96209.28;5094646;28;20044;-66
2023/05/24 11:10:37;;;;;;;3.72;3.05;;;;;;;26.08;42.59;96202.25;5094790;28;20052;-67
2023/05/24 11:13:08;;;;;;;6.60;4.15;;;;;;;26.07;43.16;96219.31;5105477;28;20079;-68
2023/05/24 11:15:36;;;;;;;6.82;3.10;;;;;;;25.94;40.75;96213.59;5101038;28;20043;-65
2023/05/24 11:18:16;;;;;;;5.22;2.92;;;;;;;25.77;42.59;96216.25;5094555;28;20448;-66
2023/05/24 11:20:45;;;;;;;;;;;;;;;25.61;42.54;96208.97;5094882;28;20509;-71
2023/05/24 11:23:15;;;;;;;5.57;3.35;;;;;;;25.45;43.93;96215.06;5095509;28;19974;-69
2023/05/24 11:25:43;;;;;;;;;;;;;;;25.44;42.55;96216.06;5094884;28;20168;-71
2023/05/24 11:28:11;;;;;;;7.57;3.17;;;;;;;25.39;44.25;96208.53;5094287;28;19965;-67
2023/05/24 11:30:41;;;;;;;7.95;3.53;;;;;;;25.43;43.81;96201.84;5094151;28;20056;-66
2023/05/24 11:33:17;;;;;;;7.68;2.60;;;;;;;25.33;37.80;96185.06;5093904;28;20122;-67
2023/05/24 11:35:45;;;;;;;6.28;2.75;;;;;;;25.46;39.01;96200.69;5094163;28;20055;-68
2023/05/24 11:38:16;;;;;;;3.28;2.88;;;;;;;25.45;38.03;96199.00;5093918;28;20070;-68
2023/05/24 11:40:44;;;;;;;;;;;;;;;25.57;39.39;96188.84;5094584;28;20047;-67